Date,TemperatureHighF,TemperatureAvgF,TemperatureLowF,DewpointHighF,DewpointAvgF,DewpointLowF,HumidityHigh,HumidityAvg,HumidityLow,PressureMaxIn,PressureMinIn,WindSpeedMaxMPH,WindSpeedAvgMPH,GustSpeedMaxMPH,PrecipitationSumIn
2013-2-1,44.4,28.6,15.6,23.1,14.7,8.1,75,58,35,30.43,30.12,16,5,16,0.00
2013-2-2,62.2,42.3,24.4,38.0,30.9,21.3,91,67,37,30.24,30.12,11,3,14,0.00
2013-2-3,59.2,47.9,34.9,33.2,30.6,27.5,77,54,31,30.27,29.89,13,6,14,0.00
2013-2-4,70.3,55.7,40.3,41.5,37.4,32.6,80,52,30,29.93,29.78,13,6,14,0.04
2013-2-5,72.5,48.7,28.6,45.1,35.9,28.1,99,67,26,30.01,29.88,8,2,9,0.00
2013-2-6,67.8,52.2,32.7,53.4,43.0,31.2,97,72,54,30.02,29.84,22,7,22,0.00
2013-2-7,59.0,51.9,41.0,56.1,50.1,38.9,99,93,80,30.12,29.79,15,7,18,0.01
2013-2-8,52.5,40.6,33.3,39.0,35.7,32.5,97,84,57,30.30,30.11,15,5,16,0.00
2013-2-9,44.4,41.1,34.3,44.2,38.4,32.5,99,90,75,30.14,29.69,18,10,22,0.05
2013-2-10,63.7,52.0,39.9,50.5,38.2,29.0,99,65,28,30.02,29.58,20,10,27,0.08
2013-2-11,57.2,42.2,30.2,31.5,28.5,25.4,84,61,33,30.19,30.02,12,3,13,0.00
2013-2-12,43.0,36.7,32.9,39.3,33.3,27.5,99,88,69,30.09,29.92,12,5,15,0.28
2013-2-13,35.4,34.3,33.4,35.2,34.1,33.2,99,99,99,30.00,29.95,12,5,12,0.01
2013-2-17,71.1,51.5,32.4,38.4,31.7,21.5,80,51,25,30.03,29.71,21,9,21,0.00
2013-2-18,64.8,54.6,36.1,53.5,41.2,27.5,80,62,44,30.12,29.58,29,14,29,0.00
2013-2-19,54.7,39.1,23.2,30.4,25.4,20.6,92,61,35,30.31,30.12,10,3,10,0.00
2013-2-20,36.1,34.3,31.3,35.6,29.9,21.0,99,85,55,30.25,29.97,13,5,13,0.17
2013-2-21,35.4,33.4,26.8,35.2,33.0,23.7,99,99,87,29.97,29.64,17,6,17,1.02
2013-2-22,40.5,29.0,19.8,26.0,22.0,18.1,94,77,52,30.11,29.92,13,6,13,0.00
2013-2-23,49.5,31.6,18.5,28.9,23.4,17.6,97,74,44,30.10,29.91,7,2,9,0.00
2013-2-24,60.3,43.9,25.7,42.1,34.1,23.7,93,71,49,29.93,29.71,18,6,22,0.00
2013-2-25,44.2,38.8,33.3,39.5,37.0,33.0,99,94,76,29.79,29.44,24,11,24,1.05
2013-2-26,43.7,36.7,32.7,37.0,34.3,31.2,99,91,73,29.88,29.47,21,11,24,0.19
2013-2-27,48.7,38.2,32.2,35.1,31.9,28.8,97,79,54,30.12,29.86,20,8,20,0.00
2013-2-28,45.9,37.0,28.6,33.8,30.5,27.1,96,78,61,30.19,30.10,17,8,17,0.00